Flight Track Log - Related Links

Times and Time Zones

All times are in EDT time to prevent confusion due to time zone crossing. See the UAL1058 flight status page for this flight to view local times or setup timezone preferences in your user account.

Time Position Orientation Groundspeed Altitude Reporting Facility
EDT Latitude Longitude Course Direction KTS MPH feet Rate Location/Type
Fri 06:45:30 PM 21.0282 -86.8603 119° Southeast 160 184 1,000  Level FlightAware ADS-B
Fri 06:45:45 PM 21.0225 -86.8500 121° Southeast 166 191 1,600 2,000 Climbing FlightAware ADS-B
Fri 06:46:00 PM 21.0163 -86.8388 121° Southeast 182 209 2,000 1,920 Climbing FlightAware ADS-B
Fri 06:46:10 PM 21.0127 -86.8309 109° East 192 221 2,400 2,400 Climbing FlightAware ADS-B
Fri 06:46:15 PM 21.0108 -86.8258 97° East 200 230 2,600 2,400 Climbing FlightAware ADS-B
Fri 06:46:20 PM 21.0103 -86.8216 89° East 205 236 2,800 2,400 Climbing FlightAware ADS-B
Fri 06:46:25 PM 21.0108 -86.8162 79° East 213 245 3,000 2,400 Climbing FlightAware ADS-B
Fri 06:46:30 PM 21.0122 -86.8110 70° East 222 255 3,200 2,667 Climbing FlightAware ADS-B
Fri 06:46:34 PM 21.0142 -86.8066 61° Northeast 229 264 3,400 2,667 Climbing FlightAware ADS-B
Fri 06:46:39 PM 21.0170 -86.8020 52° Northeast 233 268 3,600 3,600 Climbing FlightAware ADS-B
Fri 06:46:44 PM 21.0205 -86.7978 45° Northeast 232 267 4,000 3,818 Climbing FlightAware ADS-B
Fri 06:46:50 PM 21.0260 -86.7929 36° Northeast 235 270 4,300 3,000 Climbing FlightAware ADS-B
Fri 06:46:54 PM 21.0294 -86.7906 31° Northeast 238 274 4,500 2,400 Climbing FlightAware ADS-B
Fri 06:47:00 PM 21.0347 -86.7879 21° North 244 281 4,700 2,182 Climbing FlightAware ADS-B
Fri 06:47:05 PM 21.0412 -86.7859 10° North 248 285 4,900 2,400 Climbing FlightAware ADS-B
Fri 06:47:10 PM 21.0467 -86.7854 North 249 287 5,100 2,400 Climbing FlightAware ADS-B
Fri 06:47:20 PM 21.0580 -86.7852 358° North 255 293 5,500 2,750 Climbing FlightAware ADS-B
Fri 06:47:34 PM 21.0753 -86.7870 354° North 265 305 6,200 2,600 Climbing FlightAware ADS-B
Fri 06:47:50 PM 21.0958 -86.7896 353° North 279 321 6,800 2,200 Climbing FlightAware ADS-B
Fri 06:48:04 PM 21.1145 -86.7919 354° North 290 334 7,300 2,400 Climbing FlightAware ADS-B
Fri 06:48:20 PM 21.1358 -86.7947 354° North 297 342 8,000 2,600 Climbing FlightAware ADS-B
Fri 06:48:34 PM 21.1535 -86.7969 354° North 300 345 8,600 3,000 Climbing FlightAware ADS-B
Fri 06:48:50 PM 21.1771 -86.7998 354° North 300 345 9,500 3,000 Climbing FlightAware ADS-B
Fri 06:49:20 PM 21.2188 -86.8050 354° North 305 351 10,900 2,600 Climbing FlightAware ADS-B
Fri 06:49:50 PM 21.2611 -86.8099 354° North 319 367 12,100 1,672 Climbing FlightAware ADS-B
Fri 06:50:21 PM 21.3097 -86.8158 354° North 357 411 12,600 1,900 Climbing FlightAware ADS-B
Fri 06:50:50 PM 21.3594 -86.8217 354° North 363 418 14,000 2,644 Climbing FlightAware ADS-B
Fri 06:51:20 PM 21.4091 -86.8281 354° North 371 427 15,200 2,400 Climbing FlightAware ADS-B
Fri 06:51:50 PM 21.4610 -86.8341 354° North 379 436 16,400 2,400 Climbing FlightAware ADS-B
Fri 06:52:20 PM 21.5136 -86.8406 354° North 387 445 17,600 2,200 Climbing FlightAware ADS-B
Fri 06:52:50 PM 21.5674 -86.8473 354° North 396 456 18,600 2,200 Climbing FlightAware ADS-B
Fri 06:53:20 PM 21.6228 -86.8540 354° North 399 459 19,800 2,339 Climbing FlightAware ADS-B
Fri 06:53:49 PM 21.6775 -86.8609 354° North 402 463 20,900 2,100 Climbing FlightAware ADS-B
Fri 06:54:20 PM 21.7349 -86.8677 354° North 410 472 21,900 1,800 Climbing FlightAware ADS-B
Fri 06:54:49 PM 21.7903 -86.8746 354° North 423 487 22,700 1,600 Climbing FlightAware ADS-B
Fri 06:55:20 PM 21.8523 -86.8825 354° North 432 497 23,500 1,869 Climbing FlightAware ADS-B
Fri 06:55:50 PM 21.9124 -86.8897 354° North 432 497 24,600 2,200 Climbing FlightAware ADS-B
Fri 06:56:20 PM 21.9722 -86.8971 354° North 432 497 25,700 2,100 Climbing FlightAware ADS-B
Fri 06:56:50 PM 22.0315 -86.9040 354° North 431 496 26,700 2,000 Climbing FlightAware ADS-B
Fri 06:57:20 PM 22.0904 -86.9122 354° North 431 496 27,700 1,700 Climbing FlightAware ADS-B
Fri 06:57:50 PM 22.1505 -86.9197 354° North 436 502 28,400 1,300 Climbing FlightAware ADS-B
Fri 06:58:20 PM 22.2118 -86.9273 354° North 445 512 29,000 1,119 Climbing FlightAware ADS-B
Fri 06:58:49 PM 22.2743 -86.9350 354° North 454 522 29,500 1,017 Climbing FlightAware ADS-B
Fri 06:59:19 PM 22.3375 -86.9428 354° North 461 531 30,000 1,279 Climbing FlightAware ADS-B
Fri 06:59:50 PM 22.4011 -86.9506 354° North 461 531 30,800 1,770 Climbing FlightAware ADS-B
Fri 07:00:20 PM 22.4639 -86.9585 354° North 455 524 31,800 1,900 Climbing FlightAware ADS-B
Fri 07:00:50 PM 22.5287 -86.9666 354° North 450 518 32,700 1,700 Climbing FlightAware ADS-B
Fri 07:01:20 PM 22.5900 -86.9743 354° North 447 514 33,500 1,700 Climbing FlightAware ADS-B
Fri 07:01:50 PM 22.6520 -86.9821 354° North 440 506 34,400 1,800 Climbing FlightAware ADS-B
Fri 07:02:20 PM 22.7120 -86.9895 354° North 434 499 35,300 1,600 Climbing FlightAware ADS-B
Fri 07:02:50 PM 22.7704 -86.9969 354° North 429 494 36,000 592 Climbing FlightAware ADS-B
Fri 07:03:31 PM 22.8525 -87.0070 354° North 431 496 36,000  Level FlightAware ADS-B
Fri 07:04:00 PM 22.9098 -87.0141 354° North 429 494 36,000  Level FlightAware ADS-B
Fri 07:04:30 PM 22.9662 -87.0210 354° North 428 493 36,000  Level FlightAware ADS-B
Fri 07:05:05 PM 23.0314 -87.0321 338° Northwest 414 476 36,000  Level FlightAware ADS-B
Fri 07:05:45 PM 23.0887 -87.0880 299° West 393 452 36,000  Level FlightAware ADS-B
Fri 07:06:14 PM 23.1150 -87.1392 300° West 393 452 36,000  Level FlightAware ADS-B
Fri 07:06:45 PM 23.1422 -87.1926 299° West 393 452 36,000  Level FlightAware ADS-B
Fri 07:07:15 PM 23.1683 -87.2437 299° West 394 453 36,000  Level FlightAware ADS-B
Fri 07:07:45 PM 23.1957 -87.2976 299° West 393 452 36,000  Level FlightAware ADS-B
Fri 07:08:14 PM 23.2204 -87.3463 299° West 394 453 36,000  Level FlightAware ADS-B
Fri 07:08:45 PM 23.2479 -87.4005 299° West 395 455 36,000  Level FlightAware ADS-B
Fri 07:09:14 PM 23.2739 -87.4520 299° West 395 455 36,000  Level FlightAware ADS-B
Fri 07:09:45 PM 23.3009 -87.5051 299° West 396 456 36,000  Level FlightAware ADS-B
Fri 07:10:15 PM 23.3270 -87.5568 299° West 396 456 36,000  Level FlightAware ADS-B
Fri 07:10:45 PM 23.3536 -87.6093 299° West 395 455 36,000  Level FlightAware ADS-B
Fri 07:11:15 PM 23.3806 -87.6628 299° West 395 455 36,000  Level FlightAware ADS-B
Fri 07:11:45 PM 23.4069 -87.7149 299° West 395 455 36,000  Level FlightAware ADS-B
Fri 07:12:15 PM 23.4317 -87.7639 299° West 395 455 36,000  Level FlightAware ADS-B
Fri 07:12:45 PM 23.4597 -87.8193 300° West 394 453 36,000  Level FlightAware ADS-B
Fri 07:13:15 PM 23.4865 -87.8708 300° West 394 453 36,000  Level FlightAware ADS-B
Fri 07:13:44 PM 23.5128 -87.9215 300° West 394 453 36,000  Level FlightAware ADS-B
Fri 07:14:15 PM 23.5395 -87.9734 300° West 393 452 36,000  Level FlightAware ADS-B
Fri 07:14:45 PM 23.5671 -88.0269 300° West 393 452 36,000  Level FlightAware ADS-B
Fri 07:15:14 PM 23.5930 -88.0772 300° West 392 451 36,000  Level FlightAware ADS-B
Fri 07:15:36 PM 23.6114 -88.1130 300° West 391 450 36,000  Level FlightAware ADS-B
Fri 07:16:07 PM 23.6301 -88.1495 300° West 391 450 36,000  Level FlightAware ADS-B
Fri 07:16:39 PM 23.6671 -88.2215 300° West 390 449 36,000  Level FlightAware ADS-B
Fri 07:58:05 PM 26.7408 -91.5981 318° Northwest 290 334 36,000  Level Houston Center
Fri 07:59:00 PM 26.5889 -91.3505 318° Northwest  Level FlightAware Approximate
Fri 07:59:07 PM 26.8358 -91.6786 323° Northwest 392 451 36,000  Level Houston Center
Fri 08:00:00 PM 26.6600 -91.4218 318° Northwest  Level FlightAware Approximate
Fri 08:00:09 PM 26.9264 -91.7489 325° Northwest 392 451 36,000  Level Houston Center
Fri 08:00:49 PM 26.9930 -91.8022 325° Northwest 394 453 36,000 -97 Level FlightAware ADS-B (KHOU)
Fri 08:01:00 PM 26.7311 -91.4932 318° Northwest  Level FlightAware Approximate
Fri 08:01:11 PM 27.0147 -91.8203 324° Northwest 392 451 35,900  Level Houston Center
Fri 08:02:00 PM 26.8016 -91.5641 318° Northwest  Level FlightAware Approximate
Fri 08:02:13 PM 27.0972 -91.9003 319° Northwest 392 451 36,000  Level Houston Center
Fri 08:03:00 PM 26.8721 -91.6351 318° Northwest  Level FlightAware Approximate
Fri 08:03:15 PM 27.1769 -91.9781 319° Northwest 388 447 36,000  Level Houston Center
Fri 08:08:59 PM 27.6440 -92.4346 319° Northwest 374 430 36,000  Level FlightAware ADS-B (KHOU)
Fri 08:09:29 PM 27.6569 -92.4473 319° Northwest 374 430 36,000  Level FlightAware ADS-B (KHOU)
Fri 08:09:59 PM 27.6916 -92.4816 319° Northwest 374 430 36,000  Level FlightAware ADS-B (KHOU)
Fri 08:10:28 PM 27.7497 -92.5391 319° Northwest 374 430 36,000  Level FlightAware ADS-B (KHOU)
Fri 08:10:44 PM 27.7750 -92.5640 319° Northwest 374 430 36,000  Level FlightAware ADS-B (KHOU)
Fri 08:11:29 PM 27.8048 -92.5935 319° Northwest 374 430 36,000 -55 Level FlightAware ADS-B (KHOU)
Fri 08:12:34 PM 27.9150 -92.7003 319° Northwest 373 429 35,900  Descending Houston Center
Fri 08:13:36 PM 27.9903 -92.7803 317° Northwest 373 429 36,000 48 Climbing Houston Center
Fri 08:14:39 PM 28.0703 -92.8558 320° Northwest 373 429 36,000 -48 Level Houston Center
Fri 08:15:41 PM 28.1631 -92.9492 318° Northwest 373 429 35,900  Descending Houston Center
Fri 08:16:43 PM 28.2414 -93.0272 319° Northwest 373 429 36,000 48 Climbing Houston Center
Fri 08:17:45 PM 28.3197 -93.1058 319° Northwest 373 429 36,000  Level Houston Center
Fri 08:18:47 PM 28.3975 -93.1853 318° Northwest 374 430 36,000  Level Houston Center
Fri 08:19:49 PM 28.4747 -93.2608 319° Northwest 375 432 36,000  Level Houston Center
Fri 08:20:51 PM 28.5697 -93.3578 318° Northwest 381 438 36,000 -927 Level Houston Center
Fri 08:26:24 PM 29.0578 -93.7413 344° North 415 478 29,900 -1,091 Descending FlightAware ADS-B (KHOU)
Fri 08:26:54 PM 29.1135 -93.7596 344° North 418 481 29,400 -1,279 Descending FlightAware ADS-B (KHOU)
Fri 08:27:25 PM 29.1707 -93.7784 344° North 413 475 28,600 -1,800 Descending FlightAware ADS-B (KHOU)
Fri 08:27:54 PM 29.2249 -93.7962 345° North 404 465 27,600 -2,100 Descending FlightAware ADS-B (KHOU)
Fri 08:28:25 PM 29.2782 -93.8137 344° North 394 453 26,500 -1,900 Descending FlightAware ADS-B (KHOU)
Fri 08:28:54 PM 29.3302 -93.8309 344° North 379 436 25,700 -1,017 Descending FlightAware ADS-B (KHOU)
Fri 08:29:24 PM 29.3790 -93.8472 344° North 353 406 25,500 -500 Descending FlightAware ADS-B (KHOU)
Fri 08:29:54 PM 29.4246 -93.8614 352° North 337 388 25,200 -511 Descending FlightAware ADS-B (KHOU)
Fri 08:30:11 PM 29.4166 -93.8596 10° North 351 404 25,100 -400 Descending FlightAware ADS-B
Fri 08:30:24 PM 29.4722 -93.8527 26° Northeast 362 417 25,000 -522 Descending FlightAware ADS-B (KHOU)
Fri 08:30:34 PM 29.4858 -93.8427 34° Northeast 367 422 24,900 -571 Descending FlightAware ADS-B (KHOU)
Fri 08:30:45 PM 29.4979 -93.8291 49° Northeast 377 434 24,800 -1,143 Descending FlightAware ADS-B (KHOU)
Fri 08:30:55 PM 29.5083 -93.8107 62° Northeast 388 447 24,500 -1,412 Descending FlightAware ADS-B (KHOU)
Fri 08:31:02 PM 29.5124 -93.7978 74° East 389 448 24,400 -667 Descending FlightAware ADS-B
Fri 08:31:13 PM 29.5156 -93.7740 88° East 385 443 24,300 -1,143 Descending FlightAware ADS-B (KHOU)
Fri 08:31:44 PM 29.5142 -93.7109 91° East 375 432 23,600 -1,161 Descending FlightAware ADS-B (KHOU)
Fri 08:32:15 PM 29.5132 -93.6543 91° East 366 421 23,100 -766 Descending FlightAware ADS-B (KHOU)
Fri 08:32:31 PM 29.5126 -93.6203 91° East 364 419 23,000 -146 Descending FlightAware ADS-B
Fri 08:32:56 PM 29.5117 -93.5730 91° East 363 418 23,000  Level FlightAware ADS-B
Fri 08:33:45 PM 29.5053 -93.4808 106° East 353 406 23,000  Level FlightAware ADS-B (KHOU)
Fri 08:33:54 PM 29.4981 -93.4641 120° Southeast 346 398 23,000  Level FlightAware ADS-B (KHOU)
Fri 08:34:04 PM 29.4892 -93.4509 131° Southeast 336 387 23,000  Level FlightAware ADS-B (KHOU)
Fri 08:34:25 PM 29.4642 -93.4298 152° Southeast 312 359 23,000  Level FlightAware ADS-B (KHOU)
Fri 08:34:35 PM 29.4508 -93.4242 163° South 304 350 23,000  Level FlightAware ADS-B (KHOU)
Fri 08:34:45 PM 29.4378 -93.4216 174° South 294 338 23,000  Level FlightAware ADS-B (KHOU)
Fri 08:34:55 PM 29.4260 -93.4214 185° South 285 328 23,000  Level FlightAware ADS-B (KHOU)
Fri 08:35:04 PM 29.4115 -93.4239 194° South 279 321 23,000  Level FlightAware ADS-B (KHOU)
Fri 08:35:14 PM 29.3994 -93.4285 204° Southwest 274 315 23,000  Level FlightAware ADS-B (KHOU)
Fri 08:35:33 PM 29.3804 -93.4418 220° Southwest 261 300 23,000  Level FlightAware ADS-B
Fri 08:35:45 PM 29.3709 -93.4525 230° Southwest 254 292 23,000  Level FlightAware ADS-B (KHOU)
Fri 08:36:00 PM 29.3804 -93.4418 244° Southwest 250 288 23,000  Level FlightAware ADS-B
Fri 08:36:15 PM 29.3544 -93.4881 255° West 249 287 23,000  Level FlightAware ADS-B (KHOU)
Fri 08:36:32 PM 29.3550 -93.4856 270° West 250 288 23,000  Level FlightAware ADS-B
Fri 08:36:54 PM 29.3549 -93.5395 288° West 253 291 23,000  Level FlightAware ADS-B (KHOU)
Fri 08:37:42 PM 29.3723 -93.5785 300° West 257 296 23,000  Level FlightAware ADS-B
Fri 08:38:12 PM 29.3980 -93.6302 300° West 255 293 23,000  Level FlightAware ADS-B
Fri 08:38:42 PM 29.4162 -93.6666 300° West 256 295 23,000  Level FlightAware ADS-B
Fri 08:39:12 PM 29.4178 -93.6697 300° West 257 296 23,000  Level FlightAware ADS-B
Fri 08:39:42 PM 29.4528 -93.7393 300° West 262 302 23,000  Level FlightAware ADS-B
Fri 08:40:02 PM 29.4599 -93.7536 300° West 264 304 23,000  Level FlightAware ADS-B
Fri 08:40:45 PM 29.4906 -93.8148 299° West 262 302 23,000  Level FlightAware ADS-B (KHOU)
Fri 08:41:14 PM 29.5077 -93.8496 300° West 263 303 23,000  Level FlightAware ADS-B (KHOU)
Fri 08:41:35 PM 29.5159 -93.8760 283° West 249 287 23,000  Level FlightAware ADS-B (KHOU)
Fri 08:41:45 PM 29.5173 -93.8892 274° West 247 284 23,000  Level FlightAware ADS-B (KHOU)
Fri 08:41:55 PM 29.5170 -93.9026 266° West 245 282 23,000  Level FlightAware ADS-B (KHOU)
Fri 08:42:04 PM 29.5153 -93.9152 258° West 244 281 23,000  Level FlightAware ADS-B (KHOU)
Fri 08:42:22 PM 29.5085 -93.9366 243° Southwest 249 287 23,000  Level FlightAware ADS-B
Fri 08:42:39 PM 29.5080 -93.9376 229° Southwest 258 297 23,000  Level FlightAware ADS-B
Fri 08:42:55 PM 29.4829 -93.9696 216° Southwest 267 307 23,000  Level FlightAware ADS-B (KHOU)
Fri 08:43:12 PM 29.4652 -93.9801 203° Southwest 276 318 23,000  Level FlightAware ADS-B
Fri 08:43:24 PM 29.4472 -93.9850 188° South 289 333 23,000  Level FlightAware ADS-B (KHOU)
Fri 08:43:35 PM 29.4338 -93.9855 177° South 298 343 23,000  Level FlightAware ADS-B (KHOU)
Fri 08:43:45 PM 29.4207 -93.9834 166° South 309 356 23,000  Level FlightAware ADS-B (KHOU)
Fri 08:43:55 PM 29.4059 -93.9776 155° Southeast 320 368 23,000 -207 Level FlightAware ADS-B (KHOU)
Fri 08:44:14 PM 29.3825 -93.9593 134° Southeast 324 373 22,900  Descending FlightAware ADS-B (KHOU)
Fri 08:44:24 PM 29.3727 -93.9450 124° Southeast 333 383 23,000 300 Climbing FlightAware ADS-B (KHOU)
Fri 08:44:34 PM 29.3651 -93.9285 112° Southeast 355 409 23,000  Level FlightAware ADS-B (KHOU)
Fri 08:44:54 PM 29.3591 -93.8918 90° East 376 433 23,000  Level FlightAware ADS-B (KHOU)
Fri 08:45:25 PM 29.3587 -93.8301 90° East 377 434 23,000  Level FlightAware ADS-B (KHOU)
Fri 08:45:54 PM 29.3577 -93.7714 91° East 386 444 23,000  Level FlightAware ADS-B (KHOU)
Fri 08:46:29 PM 29.3561 -93.7002 91° East 375 432 23,000  Level FlightAware ADS-B (KHOU)
Fri 08:46:59 PM 29.3550 -93.6402 91° East 375 432 23,000  Level FlightAware ADS-B (KHOU)
Fri 08:47:29 PM 29.3538 -93.5800 91° East 381 438 23,000  Level FlightAware ADS-B (KHOU)
Fri 08:48:00 PM 29.3526 -93.5191 91° East 382 440 23,000  Level FlightAware ADS-B (KHOU)
Fri 08:48:20 PM 29.3578 -93.4800 69° East 379 436 23,000  Level FlightAware ADS-B (KHOU)
Fri 08:48:29 PM 29.3646 -93.4645 58° Northeast 373 429 23,000  Level FlightAware ADS-B (KHOU)
Fri 08:48:39 PM 29.3761 -93.4481 44° Northeast 364 419 23,000  Level FlightAware ADS-B (KHOU)
Fri 08:48:50 PM 29.3889 -93.4365 33° Northeast 354 407 23,000  Level FlightAware ADS-B (KHOU)
Fri 08:48:59 PM 29.4038 -93.4279 20° North 341 392 23,000  Level FlightAware ADS-B (KHOU)
Fri 08:49:09 PM 29.4191 -93.4233 North 329 379 23,000  Level FlightAware ADS-B (KHOU)
Fri 08:49:29 PM 29.4483 -93.4241 349° North 307 353 23,000  Level FlightAware ADS-B (KHOU)
Fri 08:49:39 PM 29.4607 -93.4284 339° North 296 341 23,000  Level FlightAware ADS-B (KHOU)
Fri 08:49:50 PM 29.4740 -93.4363 329° Northwest 288 331 23,000  Level FlightAware ADS-B (KHOU)
Fri 08:50:09 PM 29.4931 -93.4560 310° West 274 315 23,000  Level FlightAware ADS-B (KHOU)
Fri 08:50:30 PM 29.5053 -93.4803 291° West 263 303 23,000  Level FlightAware ADS-B (KHOU)
Fri 08:50:49 PM 29.5099 -93.5036 275° West 254 292 23,000  Level FlightAware ADS-B (KHOU)
Fri 08:51:30 PM 29.5115 -93.5610 272° West 248 285 23,000  Level FlightAware ADS-B (KHOU)
Fri 08:52:00 PM 29.5122 -93.5992 272° West 254 292 23,000  Level FlightAware ADS-B (KHOU)
Fri 08:52:30 PM 29.5129 -93.6421 272° West 256 295 23,000  Level FlightAware ADS-B (KHOU)
Fri 08:53:00 PM 29.5138 -93.6820 272° West 253 291 23,000  Level FlightAware ADS-B (KHOU)
Fri 08:53:30 PM 29.5145 -93.7228 272° West 252 290 23,000  Level FlightAware ADS-B (KHOU)
Fri 08:53:59 PM 29.5151 -93.7629 271° West 258 297 23,000  Level FlightAware ADS-B (KHOU)
Fri 08:54:30 PM 29.5158 -93.8033 272° West 249 287 23,000  Level FlightAware ADS-B (KHOU)
Fri 08:54:59 PM 29.5165 -93.8415 272° West 250 288 23,000  Level FlightAware ADS-B (KHOU)
Fri 08:55:30 PM 29.5175 -93.8828 273° West 249 287 23,000  Level FlightAware ADS-B (KHOU)
Fri 08:56:00 PM 29.5191 -93.9223 273° West 252 290 23,000  Level FlightAware ADS-B (KHOU)
Fri 08:56:29 PM 29.5195 -93.9619 266° West 261 300 23,000  Level FlightAware ADS-B (KHOU)
Fri 08:56:39 PM 29.5165 -93.9756 249° West 279 321 23,000  Level FlightAware ADS-B (KHOU)
Fri 08:56:49 PM 29.5102 -93.9895 239° Southwest 296 341 23,000  Level FlightAware ADS-B (KHOU)
Fri 08:57:27 PM 29.4902 -94.0292 241° Southwest 318 366 23,000 -169 Level FlightAware ADS-B
Fri 08:58:00 PM 29.4586 -94.0943 242° Southwest 331 381 22,800 -581 Descending FlightAware ADS-B (KHOU)
Fri 08:58:29 PM 29.4366 -94.1396 241° Southwest 320 368 22,400 -1,220 Descending FlightAware ADS-B (KHOU)
Fri 08:58:59 PM 29.4158 -94.1828 242° Southwest 308 354 21,600 -1,700 Descending FlightAware ADS-B (KHOU)
Fri 08:59:29 PM 29.3952 -94.2253 242° Southwest 301 346 20,700 -1,770 Descending FlightAware ADS-B (KHOU)
Fri 09:00:00 PM 29.3751 -94.2667 241° Southwest 295 339 19,800 -1,900 Descending FlightAware ADS-B (KHOU)
Fri 09:00:29 PM 29.3550 -94.3080 242° Southwest 294 338 18,800 -2,100 Descending FlightAware ADS-B (KHOU)
Fri 09:01:00 PM 29.3357 -94.3480 242° Southwest 283 326 17,700 -2,066 Descending FlightAware ADS-B (KHOU)
Fri 09:01:30 PM 29.3168 -94.3868 241° Southwest 271 312 16,700 -2,105 Descending FlightAware ADS-B (KHOU)
Fri 09:01:57 PM 29.3001 -94.4210 241° Southwest 269 310 15,700 -2,488 Descending FlightAware ADS-B (KHOU)
Fri 09:02:52 PM 29.2747 -94.4917 241° Southwest 268 308 13,300 -2,571 Descending FlightAware ADS-B
Fri 09:03:00 PM 29.2777 -94.5051 288° West 290 334 13,000 -2,500 Descending FlightAware ADS-B
Fri 09:03:04 PM 29.2800 -94.5108 298° West 295 339 12,800 -2,043 Descending FlightAware ADS-B
Fri 09:04:34 PM 29.3680 -94.6045 241° Southwest 269 310 9,800 -2,000 Descending FlightAware ADS-B (KHOU)
Fri 09:04:37 PM 29.3713 -94.6069 327° Northwest 291 335 9,700 -2,250 Descending FlightAware ADS-B
Fri 09:04:42 PM 29.3755 -94.6101 327° Northwest 291 335 9,500 -2,182 Descending FlightAware ADS-B
Fri 09:04:59 PM 29.3955 -94.6251 327° Northwest 289 333 8,900 -2,053 Descending FlightAware ADS-B (KHOU)
Fri 09:05:20 PM 29.4191 -94.6428 327° Northwest 285 328 8,200 -1,333 Descending FlightAware ADS-B (KHOU)
Fri 09:05:35 PM 29.4354 -94.6550 327° Northwest 280 322 8,100 -171 Descending FlightAware ADS-B (KHOU)
Fri 09:05:55 PM 29.4571 -94.6712 327° Northwest 281 323 8,100 150 Level FlightAware ADS-B (KHOU)
Fri 09:06:15 PM 29.4791 -94.6877 327° Northwest 283 326 8,200 158 Climbing FlightAware ADS-B (KHOU)
Fri 09:06:33 PM 29.4989 -94.7025 327° Northwest 281 323 8,200  Level FlightAware ADS-B
Fri 09:06:52 PM 29.5193 -94.7181 326° Northwest 283 326 8,200  Level FlightAware ADS-B
Fri 09:07:04 PM 29.5337 -94.7287 332° Northwest 286 329 8,200 -200 Level FlightAware ADS-B (KHOU)
Fri 09:07:22 PM 29.5553 -94.7401 337° Northwest 287 330 8,100 -200 Descending FlightAware ADS-B
Fri 09:07:34 PM 29.5697 -94.7467 344° North 289 333 8,100  Level FlightAware ADS-B (KHOU)
Fri 09:07:40 PM 29.5769 -94.7484 353° North 291 335 8,100 -545 Level FlightAware ADS-B (KHOU)
Fri 09:07:45 PM 29.5843 -94.7489 359° North 293 337 8,000 -857 Descending FlightAware ADS-B (KHOU)
Fri 09:07:47 PM 29.5858 -94.7489 North 293 337 8,000 -1,412 Level FlightAware ADS-B
Fri 09:08:02 PM 29.6088 -94.7487 North 293 337 7,600 -1,400 Descending FlightAware ADS-B
Fri 09:08:17 PM 29.6278 -94.7482 North 288 331 7,300 -938 Descending FlightAware ADS-B
Fri 09:08:34 PM 29.6501 -94.7476 North 281 323 7,100 -1,071 Descending FlightAware ADS-B (KHOU)
Fri 09:08:45 PM 29.6637 -94.7478 355° North 274 315 6,800 -1,125 Descending FlightAware ADS-B (KHOU)
Fri 09:08:50 PM 29.6700 -94.7492 345° North 268 308 6,800 -600 Level FlightAware ADS-B (KHOU)
Fri 09:08:55 PM 29.6759 -94.7518 336° Northwest 261 300 6,700 -1,200 Descending FlightAware ADS-B (KHOU)
Fri 09:09:00 PM 29.6811 -94.7549 331° Northwest 256 295 6,600 -1,200 Descending FlightAware ADS-B (KHOU)
Fri 09:09:15 PM 29.6964 -94.7651 330° Northwest 252 290 6,300 -1,400 Descending FlightAware ADS-B (KHOU)
Fri 09:09:30 PM 29.7117 -94.7755 330° Northwest 251 289 5,900 -1,600 Descending FlightAware ADS-B (KHOU)
Fri 09:09:45 PM 29.7265 -94.7856 330° Northwest 255 293 5,500 -1,400 Descending FlightAware ADS-B (KHOU)
Fri 09:10:00 PM 29.7422 -94.7965 329° Northwest 260 299 5,200 -686 Descending FlightAware ADS-B (KHOU)
Fri 09:10:20 PM 29.7626 -94.8107 329° Northwest 259 298 5,100 -150 Descending FlightAware ADS-B (KHOU)
Fri 09:10:40 PM 29.7835 -94.8253 329° Northwest 257 296 5,100  Level FlightAware ADS-B (KHOU)
Fri 09:11:00 PM 29.8029 -94.8387 329° Northwest 238 274 5,100 150 Level FlightAware ADS-B (KHOU)
Fri 09:11:20 PM 29.8205 -94.8511 328° Northwest 220 253 5,200  Climbing FlightAware ADS-B (KHOU)
Fri 09:11:25 PM 29.8246 -94.8547 319° Northwest 212 244 5,100  Descending FlightAware ADS-B (KHOU)
Fri 09:11:30 PM 29.8281 -94.8590 309° West 208 239 5,200 600 Climbing FlightAware ADS-B (KHOU)
Fri 09:11:35 PM 29.8305 -94.8638 297° West 211 243 5,200  Level FlightAware ADS-B (KHOU)
Fri 09:11:40 PM 29.8322 -94.8689 287° West 215 247 5,200  Level FlightAware ADS-B (KHOU)
Fri 09:11:44 PM 29.8329 -94.8745 274° West 220 253 5,200 -600 Level FlightAware ADS-B (KHOU)
Fri 09:11:50 PM 29.8328 -94.8806 267° West 216 249 5,100 -286 Descending FlightAware ADS-B (KHOU)
Fri 09:12:05 PM 29.8312 -94.8979 264° West 213 245 5,100 182 Level FlightAware ADS-B (KHOU)
Fri 09:12:23 PM 29.8296 -94.9181 270° West 221 254 5,200 -188 Climbing FlightAware ADS-B
Fri 09:12:37 PM 29.8303 -94.9338 274° West 216 249 5,000 -857 Descending FlightAware ADS-B
Fri 09:12:44 PM 29.8308 -94.9434 275° West 213 245 4,900 -1,286 Descending FlightAware ADS-B
Fri 09:13:05 PM 29.8321 -94.9662 274° West 209 241 4,400 -1,543 Descending FlightAware ADS-B
Fri 09:13:19 PM 29.8332 -94.9828 277° West 216 249 4,000 -1,500 Descending FlightAware ADS-B (KHOU)
Fri 09:13:25 PM 29.8342 -94.9886 284° West 215 247 3,900 -1,091 Descending FlightAware ADS-B (KHOU)
Fri 09:13:30 PM 29.8360 -94.9938 297° West 215 247 3,800 -1,333 Descending FlightAware ADS-B (KHOU)
Fri 09:13:34 PM 29.8383 -94.9980 307° West 217 250 3,700 -1,200 Descending FlightAware ADS-B (KHOU)
Fri 09:13:40 PM 29.8424 -95.0028 319° Northwest 216 249 3,600 -1,143 Descending FlightAware ADS-B (KHOU)
Fri 09:13:55 PM 29.8535 -95.0137 324° Northwest 215 247 3,300 -947 Descending FlightAware ADS-B (KHOU)
Fri 09:13:59 PM 29.8581 -95.0165 338° Northwest 216 249 3,300 -600 Level FlightAware ADS-B (KHOU)
Fri 09:14:05 PM 29.8629 -95.0180 343° North 214 246 3,200 -571 Descending FlightAware ADS-B (KHOU)
Fri 09:14:20 PM 29.8760 -95.0188 343° North 214 246 3,100 -600 Descending FlightAware ADS-B (KHOU)
Fri 09:14:25 PM 29.8821 -95.0189 359° North 204 235 3,000 -1,200 Descending FlightAware ADS-B (KHOU)
Fri 09:14:40 PM 29.8954 -95.0195 357° North 194 223 2,700 -1,034 Descending FlightAware ADS-B (KHOU)
Fri 09:14:54 PM 29.9092 -95.0208 356° North 188 216 2,500 -750 Descending FlightAware ADS-B (KHOU)
Fri 09:15:12 PM 29.9235 -95.0224 355° North 166 191 2,300 -500 Descending FlightAware ADS-B
Fri 09:15:30 PM 29.9364 -95.0240 354° North 151 174 2,200 -324 Descending FlightAware ADS-B (KHOU)
Fri 09:15:49 PM 29.9500 -95.0258 354° North 150 173 2,100  Descending FlightAware ADS-B (KHOU)
Fri 09:15:59 PM 29.9568 -95.0271 343° North 153 176 2,200 400 Climbing FlightAware ADS-B (KHOU)
Fri 09:16:04 PM 29.9602 -95.0291 328° Northwest 154 177 2,200  Level FlightAware ADS-B (KHOU)
Fri 09:16:10 PM 29.9629 -95.0319 313° West 156 180 2,200  Level FlightAware ADS-B (KHOU)
Fri 09:16:17 PM 29.9656 -95.0373 293° West 156 180 2,200 -261 Level FlightAware ADS-B
Fri 09:16:33 PM 29.9693 -95.0487 292° West 151 174 2,100  Descending FlightAware ADS-B
Fri 09:16:48 PM 29.9738 -95.0614 293° West 160 184 2,200 231 Climbing FlightAware ADS-B
Fri 09:16:59 PM 29.9761 -95.0701 282° West 167 192 2,200  Level FlightAware ADS-B (KHOU)
Fri 09:17:10 PM 29.9772 -95.0792 276° West 167 192 2,200 -200 Level FlightAware ADS-B (KHOU)
Fri 09:17:29 PM 29.9780 -95.0965 272° West 155 178 2,100  Descending FlightAware ADS-B (KHOU)
Fri 09:17:35 PM 29.9780 -95.1007 269° West 151 174 2,200 240 Climbing FlightAware ADS-B (KHOU)
Fri 09:17:54 PM 29.9777 -95.1169 270° West 154 177 2,200  Level FlightAware ADS-B (KHOU)
Fri 09:18:14 PM 29.9776 -95.1334 270° West 159 183 2,200  Level FlightAware ADS-B (KHOU)
Fri 09:18:35 PM 29.9775 -95.1506 271° West 162 186 2,200  Level FlightAware ADS-B (KHOU)
Fri 09:18:55 PM 29.9776 -95.1678 271° West 157 181 2,200 -150 Level FlightAware ADS-B (KHOU)
Fri 09:19:15 PM 29.9776 -95.1836 270° West 143 165 2,100 -529 Descending FlightAware ADS-B (KHOU)
Fri 09:19:29 PM 29.9776 -95.1952 270° West 144 166 1,900 -800 Descending FlightAware ADS-B (KHOU)
Fri 09:19:45 PM 29.9776 -95.2069 270° West 149 171 1,700 -600 Descending FlightAware ADS-B (KHOU)
Fri 09:19:59 PM 29.9776 -95.2189 270° West 146 168 1,600 -600 Descending FlightAware ADS-B (KHOU)
Fri 09:20:15 PM 29.9775 -95.2302 269° West 139 160 1,400 -857 Descending FlightAware ADS-B (KHOU)
Fri 09:20:20 PM 29.9774 -95.2326 269° West 137 158 1,300 -900 Descending FlightAware ADS-B (KHOU)
Fri 09:20:35 PM 29.9775 -95.2448 271° West 140 161 1,100 -600 Descending FlightAware ADS-B (KHOU)
Fri 09:20:50 PM 29.9776 -95.2561 270° West 140 161 1,000 -600 Descending FlightAware ADS-B (KHOU)
Fri 09:21:05 PM 29.9776 -95.2676 270° West 142 163 800 -800 Descending FlightAware ADS-B (KHOU)
Fri 09:21:20 PM 29.9776 -95.2793 270° West 151 174 600 -828 Descending FlightAware ADS-B (KHOU)
Fri 09:21:34 PM 29.9776 -95.2914 271° West 155 178 400 -828 Descending FlightAware ADS-B (KHOU)
Fri 09:21:49 PM 29.9776 -95.3027 270° West 156 180 200 -800 Descending FlightAware ADS-B (KHOU)

Login

Don't have an account? Register now (free) for customized features, flight alerts, and more!